Time;durP1;ratioP1;P1;durP2;ratioP2;P2;SDS_P1;SDS_P2;PMS_P1;PMS_P2;Temp;Humidity;BMP_temperature;BMP_pressure;BME280_temperature;BME280_humidity;BME280_pressure;Samples;Min_cycle;Max_cycle;Signal;HPM_P1;HPM_P2
2023/10/19 00:00:33;;;;;;;7.90;6.55;;;;;;;;;;6245252;23;20478;-71
2023/10/19 00:03:02;;;;;;;7.07;6.53;;;;;;;;;;6245757;23;20016;-71
2023/10/19 00:05:29;;;;;;;5.38;4.95;;;;;;;;;;6217975;23;20444;-70
2023/10/19 00:07:59;;;;;;;7.00;6.30;;;;;;;;;;6243661;23;20099;-71
2023/10/19 00:10:29;;;;;;;7.45;6.75;;;;;;;;;;6243311;23;20539;-71
2023/10/19 00:13:08;;;;;;;6.63;6.07;;;;;;;;;;6216053;23;20111;-72
2023/10/19 00:15:40;;;;;;;6.68;6.15;;;;;;;;;;6243099;23;20471;-69
2023/10/19 00:23:14;;;;;;;6.75;6.15;;;;;;;;;;6243652;23;20058;-73
2023/10/19 00:25:41;;;;;;;6.25;5.75;;;;;;;;;;6244130;23;20368;-70
2023/10/19 00:28:08;;;;;;;6.78;6.10;;;;;;;;;;6216794;23;20345;-70
2023/10/19 00:30:37;;;;;;;8.77;8.10;;;;;;;;;;6243610;23;20448;-68
2023/10/19 00:33:16;;;;;;;8.75;8.07;;;;;;;;;;6243648;23;20024;-70
2023/10/19 00:35:46;;;;;;;5.85;5.20;;;;;;;;;;6217061;23;20074;-70
2023/10/19 00:39:00;;;;;;;6.77;6.10;;;;;;;;;;6218257;23;20020;-71
2023/10/19 00:41:05;;;;;;;5.85;5.05;;;;;;;;;;6222105;23;20016;-70
2023/10/19 00:43:37;;;;;;;8.20;7.40;;;;;;;;;;6215875;23;20016;-71
2023/10/19 00:48:57;;;;;;;7.70;7.10;;;;;;;;;;6216464;23;20086;-71
2023/10/19 00:54:10;;;;;;;7.63;6.47;;;;;;;;;;6193052;23;20020;-71
2023/10/19 00:56:36;;;;;;;8.02;7.32;;;;;;;;;;6216837;23;20039;-72
2023/10/19 00:59:14;;;;;;;8.98;5.53;;;;;;;;;;6219110;23;20360;-70
2023/10/19 01:01:44;;;;;;;8.10;7.40;;;;;;;;;;6245054;23;20068;-70
2023/10/19 01:04:14;;;;;;;7.28;6.57;;;;;;;;;;6245145;23;20026;-70
2023/10/19 01:06:43;;;;;;;7.32;6.80;;;;;;;;;;6245344;23;20022;-71
2023/10/19 01:09:14;;;;;;;6.90;6.30;;;;;;;;;;6218947;23;20064;-70
2023/10/19 01:11:41;;;;;;;8.35;7.40;;;;;;;;;;6244974;23;20015;-70
2023/10/19 01:14:27;;;;;;;6.72;6.22;;;;;;;;;;6245578;23;20089;-71
2023/10/19 01:16:56;;;;;;;9.02;7.60;;;;;;;;;;6218717;23;20067;-70
2023/10/19 01:19:23;;;;;;;7.40;6.70;;;;;;;;;;6192064;23;20027;-71
2023/10/19 01:21:53;;;;;;;7.60;6.93;;;;;;;;;;6191659;23;20016;-70
2023/10/19 01:24:24;;;;;;;8.80;8.00;;;;;;;;;;6242509;23;20012;-70
2023/10/19 01:26:51;;;;;;;9.63;8.40;;;;;;;;;;6192307;23;20016;-70
2023/10/19 01:29:23;;;;;;;7.72;7.07;;;;;;;;;;6190475;23;20032;-70
2023/10/19 01:32:07;;;;;;;9.25;8.50;;;;;;;;;;6243155;23;20020;-71
2023/10/19 01:34:36;;;;;;;8.70;7.90;;;;;;;;;;6217197;23;20031;-71
2023/10/19 01:37:04;;;;;;;7.55;6.93;;;;;;;;;;6216566;23;20012;-71
2023/10/19 01:39:31;;;;;;;8.55;7.85;;;;;;;;;;6242386;23;20012;-71
2023/10/19 01:41:57;;;;;;;9.18;8.48;;;;;;;;;;6242595;23;20010;-70
2023/10/19 01:44:25;;;;;;;9.25;8.45;;;;;;;;;;6242354;23;20012;-70
2023/10/19 01:46:51;;;;;;;10.60;9.90;;;;;;;;;;6215907;23;20372;-70
2023/10/19 01:49:26;;;;;;;7.47;6.97;;;;;;;;;;6242501;23;20413;-70
2023/10/19 01:51:53;;;;;;;9.68;8.80;;;;;;;;;;6215997;23;20333;-69
2023/10/19 01:54:23;;;;;;;6.22;5.70;;;;;;;;;;6216037;23;20019;-69
2023/10/19 01:56:51;;;;;;;8.77;8.05;;;;;;;;;;6242581;23;20008;-69
2023/10/19 01:59:17;;;;;;;10.93;10.10;;;;;;;;;;6215654;23;20012;-70
2023/10/19 02:01:45;;;;;;;10.68;9.57;;;;;;;;;;6215448;23;20349;-69
2023/10/19 02:04:13;;;;;;;7.63;7.03;;;;;;;;;;6242348;23;20459;-72
2023/10/19 02:06:40;;;;;;;8.50;7.70;;;;;;;;;;6215494;23;20012;-72
2023/10/19 02:11:49;;;;;;;9.00;8.10;;;;;;;;;;6242849;23;20012;-73
2023/10/19 02:14:18;;;;;;;8.60;8.00;;;;;;;;;;6217547;23;20327;-71
2023/10/19 02:16:52;;;;;;;8.88;8.18;;;;;;;;;;6243923;23;20012;-70
2023/10/19 02:19:20;;;;;;;8.57;7.78;;;;;;;;;;6218575;23;20043;-70
2023/10/19 02:21:48;;;;;;;9.10;8.30;;;;;;;;;;6244010;23;20023;-70
2023/10/19 02:24:14;;;;;;;10.90;9.30;;;;;;;;;;6244633;23;20095;-70
2023/10/19 02:26:44;;;;;;;6.35;5.95;;;;;;;;;;6245191;23;20023;-72
2023/10/19 02:29:10;;;;;;;8.77;8.00;;;;;;;;;;6244668;23;20456;-72
2023/10/19 02:31:39;;;;;;;10.75;8.43;;;;;;;;;;6244526;23;20085;-72
2023/10/19 02:34:07;;;;;;;10.68;9.88;;;;;;;;;;6243986;23;20114;-71
2023/10/19 02:36:33;;;;;;;10.60;9.70;;;;;;;;;;6242135;23;20035;-72
2023/10/19 02:39:09;;;;;;;9.48;8.68;;;;;;;;;;6215407;23;20012;-72
2023/10/19 02:41:43;;;;;;;8.95;8.32;;;;;;;;;;6190429;23;20031;-69
2023/10/19 02:44:19;;;;;;;10.88;9.52;;;;;;;;;;6242028;23;20016;-70
2023/10/19 02:46:47;;;;;;;10.23;9.32;;;;;;;;;;6241985;23;20027;-70
2023/10/19 02:49:18;;;;;;;10.07;9.38;;;;;;;;;;6242271;23;20008;-71
2023/10/19 02:51:44;;;;;;;9.45;8.57;;;;;;;;;;6215638;23;20504;-71
2023/10/19 02:56:56;;;;;;;10.25;9.38;;;;;;;;;;6241863;23;20022;-69
2023/10/19 02:59:23;;;;;;;10.52;9.43;;;;;;;;;;6215699;23;20438;-71
2023/10/19 03:01:50;;;;;;;10.77;9.85;;;;;;;;;;6189601;23;20047;-73
2023/10/19 03:04:17;;;;;;;10.15;9.35;;;;;;;;;;6215152;23;20074;-72
2023/10/19 03:06:43;;;;;;;11.02;9.52;;;;;;;;;;6214266;23;20016;-72
2023/10/19 03:11:56;;;;;;;10.02;9.23;;;;;;;;;;6242036;23;20032;-73
2023/10/19 03:14:25;;;;;;;11.60;10.50;;;;;;;;;;6241648;23;20031;-74
2023/10/19 03:16:52;;;;;;;15.73;12.35;;;;;;;;;;6242117;23;20016;-73
2023/10/19 03:19:20;;;;;;;12.93;11.65;;;;;;;;;;6215068;23;20321;-71
2023/10/19 03:21:49;;;;;;;11.00;10.02;;;;;;;;;;6189390;23;20116;-74
2023/10/19 03:24:23;;;;;;;9.10;8.38;;;;;;;;;;6214762;23;20051;-73
2023/10/19 03:26:49;;;;;;;10.88;9.90;;;;;;;;;;6240910;23;20095;-74
2023/10/19 03:29:22;;;;;;;9.50;8.68;;;;;;;;;;6189022;23;20024;-73
2023/10/19 03:31:49;;;;;;;12.02;10.98;;;;;;;;;;6214592;23;20456;-74
2023/10/19 03:34:16;;;;;;;10.40;9.40;;;;;;;;;;6241482;23;20111;-74
2023/10/19 03:36:43;;;;;;;11.25;9.80;;;;;;;;;;6189970;23;20020;-74
2023/10/19 03:39:13;;;;;;;10.30;9.40;;;;;;;;;;6241638;23;20364;-75
2023/10/19 03:41:44;;;;;;;12.88;11.77;;;;;;;;;;6189518;23;20032;-75
2023/10/19 03:44:19;;;;;;;12.93;11.65;;;;;;;;;;6189815;23;20539;-74
2023/10/19 03:46:56;;;;;;;8.07;6.97;;;;;;;;;;6214920;23;20070;-73
2023/10/19 03:49:22;;;;;;;9.75;8.95;;;;;;;;;;6243479;23;20008;-72
2023/10/19 03:52:20;;;;;;;10.68;9.68;;;;;;;;;;6216431;23;20016;-71
2023/10/19 03:54:47;;;;;;;10.27;9.38;;;;;;;;;;6216628;23;20463;-73
2023/10/19 03:57:24;;;;;;;10.13;9.32;;;;;;;;;;6243459;23;20008;-73
2023/10/19 03:59:52;;;;;;;9.55;8.70;;;;;;;;;;6242949;23;20012;-73
2023/10/19 04:02:21;;;;;;;11.25;10.15;;;;;;;;;;6217421;23;20476;-73
2023/10/19 04:04:52;;;;;;;11.82;10.82;;;;;;;;;;6243092;23;20019;-74
2023/10/19 04:07:21;;;;;;;11.43;10.43;;;;;;;;;;6243661;23;20008;-74
2023/10/19 04:12:35;;;;;;;10.93;10.02;;;;;;;;;;6243119;23;20008;-75
2023/10/19 04:15:19;;;;;;;9.77;8.98;;;;;;;;;;6243383;23;20019;-74
2023/10/19 04:17:46;;;;;;;11.18;10.27;;;;;;;;;;6216028;23;20459;-75
2023/10/19 04:20:28;;;;;;;9.68;8.88;;;;;;;;;;6242626;23;20016;-75
2023/10/19 04:22:54;;;;;;;9.43;8.55;;;;;;;;;;6242930;23;20019;-75
2023/10/19 04:25:21;;;;;;;10.80;10.00;;;;;;;;;;6215946;23;20008;-74
2023/10/19 04:27:48;;;;;;;11.00;10.10;;;;;;;;;;6215876;23;20016;-75
2023/10/19 04:30:21;;;;;;;12.00;11.00;;;;;;;;;;6242545;23;20008;-75
2023/10/19 04:32:47;;;;;;;11.07;10.18;;;;;;;;;;6241453;23;20019;-74
2023/10/19 04:35:14;;;;;;;10.50;9.70;;;;;;;;;;6214488;23;20211;-74
2023/10/19 04:37:44;;;;;;;10.10;9.20;;;;;;;;;;6241466;23;20122;-73
2023/10/19 04:40:11;;;;;;;10.13;9.15;;;;;;;;;;6214951;23;20554;-74
2023/10/19 04:42:39;;;;;;;11.10;10.15;;;;;;;;;;6241725;23;20016;-74
2023/10/19 04:45:06;;;;;;;10.77;9.93;;;;;;;;;;6189314;23;20038;-72
2023/10/19 04:47:35;;;;;;;9.77;8.95;;;;;;;;;;6214590;23;20016;-73
2023/10/19 04:50:02;;;;;;;10.18;9.18;;;;;;;;;;6245192;23;20012;-71
2023/10/19 04:52:30;;;;;;;11.73;10.63;;;;;;;;;;6246758;23;20012;-71
2023/10/19 04:54:56;;;;;;;9.98;9.15;;;;;;;;;;6249010;23;20012;-73
2023/10/19 04:57:22;;;;;;;8.02;6.97;;;;;;;;;;6247589;23;20008;-73
2023/10/19 04:59:48;;;;;;;7.60;7.03;;;;;;;;;;6246136;23;20032;-73
2023/10/19 05:02:14;;;;;;;9.70;8.82;;;;;;;;;;6243515;23;20019;-73
2023/10/19 05:04:40;;;;;;;12.23;11.02;;;;;;;;;;6242711;23;20039;-70
2023/10/19 05:07:11;;;;;;;16.25;11.27;;;;;;;;;;6242984;23;20012;-70
2023/10/19 05:09:39;;;;;;;10.32;9.27;;;;;;;;;;6242417;23;20531;-71
2023/10/19 05:12:09;;;;;;;15.95;12.65;;;;;;;;;;6242821;23;20079;-71
2023/10/19 05:14:35;;;;;;;21.17;12.80;;;;;;;;;;6166102;23;20156;-71
2023/10/19 05:17:04;;;;;;;20.52;13.57;;;;;;;;;;6242758;23;20091;-73
2023/10/19 05:19:31;;;;;;;15.85;13.00;;;;;;;;;;6242733;23;20014;-72
2023/10/19 05:21:57;;;;;;;17.90;13.00;;;;;;;;;;6237691;23;20103;-72
2023/10/19 05:24:23;;;;;;;18.70;14.88;;;;;;;;;;6242112;23;20012;-72
2023/10/19 05:26:49;;;;;;;21.33;14.30;;;;;;;;;;6241527;23;20023;-72
2023/10/19 05:29:15;;;;;;;12.35;11.15;;;;;;;;;;6213916;23;20024;-72
2023/10/19 05:31:41;;;;;;;12.73;11.00;;;;;;;;;;6240631;23;20015;-73
2023/10/19 05:34:08;;;;;;;13.55;10.73;;;;;;;;;;6240355;23;20020;-70
2023/10/19 05:36:34;;;;;;;11.18;10.13;;;;;;;;;;6240481;23;20042;-71
2023/10/19 05:39:00;;;;;;;11.55;10.55;;;;;;;;;;6213703;23;20020;-71
2023/10/19 05:41:26;;;;;;;11.00;10.00;;;;;;;;;;6240171;23;20015;-71
2023/10/19 05:43:53;;;;;;;11.38;10.48;;;;;;;;;;6239896;23;20012;-71
2023/10/19 05:46:21;;;;;;;8.75;7.85;;;;;;;;;;6239783;23;20508;-72
2023/10/19 05:48:49;;;;;;;9.40;8.65;;;;;;;;;;6239983;23;20012;-72
2023/10/19 05:51:15;;;;;;;11.32;10.30;;;;;;;;;;6240210;23;20016;-72
2023/10/19 05:53:41;;;;;;;10.68;9.85;;;;;;;;;;6239513;23;20020;-72
2023/10/19 05:56:07;;;;;;;10.95;9.98;;;;;;;;;;6239963;23;20015;-72
2023/10/19 05:58:33;;;;;;;10.68;9.25;;;;;;;;;;6239203;23;20082;-72
2023/10/19 06:00:59;;;;;;;10.43;9.40;;;;;;;;;;6239303;23;20393;-72
2023/10/19 06:03:25;;;;;;;9.98;9.18;;;;;;;;;;6213721;23;20035;-72
2023/10/19 06:05:51;;;;;;;9.90;9.00;;;;;;;;;;6239603;23;20008;-72
2023/10/19 06:08:17;;;;;;;9.23;8.32;;;;;;;;;;6240383;23;20027;-72
2023/10/19 06:10:43;;;;;;;11.48;10.48;;;;;;;;;;6239709;23;20008;-73
2023/10/19 06:13:09;;;;;;;9.98;8.98;;;;;;;;;;6213355;23;20023;-72
2023/10/19 06:15:35;;;;;;;9.32;8.63;;;;;;;;;;6212992;23;20008;-72
2023/10/19 06:18:03;;;;;;;8.70;8.10;;;;;;;;;;6239869;23;20059;-72
2023/10/19 06:20:29;;;;;;;9.27;8.57;;;;;;;;;;6239470;23;20011;-73
2023/10/19 06:22:55;;;;;;;7.88;7.18;;;;;;;;;;6187751;23;20044;-73
2023/10/19 06:25:22;;;;;;;7.15;6.65;;;;;;;;;;6239791;23;20011;-72
2023/10/19 06:27:48;;;;;;;6.40;5.90;;;;;;;;;;6240016;23;20467;-71
2023/10/19 06:30:18;;;;;;;6.65;6.18;;;;;;;;;;6241391;23;20047;-70
2023/10/19 06:33:02;;;;;;;7.32;6.72;;;;;;;;;;6240987;23;20462;-70
2023/10/19 06:35:29;;;;;;;6.47;6.07;;;;;;;;;;6214384;23;20278;-71
2023/10/19 06:37:55;;;;;;;7.53;6.93;;;;;;;;;;6241698;23;20436;-70
2023/10/19 06:40:21;;;;;;;6.30;5.85;;;;;;;;;;6242172;23;20008;-70
2023/10/19 06:42:48;;;;;;;6.93;6.43;;;;;;;;;;6241277;23;20039;-70
2023/10/19 06:45:14;;;;;;;7.68;6.88;;;;;;;;;;6214382;23;20368;-71
2023/10/19 06:47:40;;;;;;;7.03;6.43;;;;;;;;;;6241124;23;20008;-71
2023/10/19 06:50:09;;;;;;;6.75;6.25;;;;;;;;;;6241652;23;20015;-70
2023/10/19 06:52:38;;;;;;;6.47;5.97;;;;;;;;;;6215026;23;20035;-71
2023/10/19 06:55:04;;;;;;;6.60;6.10;;;;;;;;;;6241431;23;20367;-71
2023/10/19 06:57:31;;;;;;;5.85;5.45;;;;;;;;;;6214805;23;20352;-72
2023/10/19 06:59:57;;;;;;;6.30;5.80;;;;;;;;;;6240680;23;20384;-71
2023/10/19 07:02:23;;;;;;;6.47;5.88;;;;;;;;;;6239868;23;20004;-71
2023/10/19 07:04:49;;;;;;;6.20;5.60;;;;;;;;;;6239733;23;20115;-70
2023/10/19 07:07:15;;;;;;;5.22;4.93;;;;;;;;;;6241099;23;20016;-71
2023/10/19 07:09:41;;;;;;;5.45;5.05;;;;;;;;;;6240713;23;20012;-72
2023/10/19 07:12:07;;;;;;;6.35;5.65;;;;;;;;;;6240917;23;20008;-72
2023/10/19 07:14:33;;;;;;;5.93;5.45;;;;;;;;;;6241354;23;20099;-73
2023/10/19 07:16:59;;;;;;;5.60;5.20;;;;;;;;;;6240801;23;20050;-73
2023/10/19 07:19:26;;;;;;;4.20;3.90;;;;;;;;;;6241693;23;20012;-72
2023/10/19 07:21:57;;;;;;;6.55;6.05;;;;;;;;;;6240974;23;20019;-71
2023/10/19 07:24:24;;;;;;;5.15;4.85;;;;;;;;;;6243329;23;20011;-71
2023/10/19 07:26:53;;;;;;;4.03;3.63;;;;;;;;;;6215664;23;20039;-70
2023/10/19 07:29:23;;;;;;;4.68;4.28;;;;;;;;;;6216884;23;20020;-72
2023/10/19 07:31:52;;;;;;;3.58;3.38;;;;;;;;;;6242693;23;20016;-71
2023/10/19 07:34:18;;;;;;;4.35;4.10;;;;;;;;;;6216086;23;20059;-71
2023/10/19 07:36:44;;;;;;;4.10;3.80;;;;;;;;;;6242424;23;20008;-70
2023/10/19 07:39:19;;;;;;;3.40;3.20;;;;;;;;;;6216028;23;20086;-71
2023/10/19 07:41:46;;;;;;;3.97;3.60;;;;;;;;;;6242658;23;20455;-70
2023/10/19 07:44:12;;;;;;;5.30;4.90;;;;;;;;;;6215888;23;20081;-71
2023/10/19 07:46:38;;;;;;;4.55;4.15;;;;;;;;;;6243107;23;20062;-71
2023/10/19 07:49:05;;;;;;;5.82;5.38;;;;;;;;;;6241382;23;20012;-71
2023/10/19 07:51:32;;;;;;;4.88;4.57;;;;;;;;;;6240824;23;20008;-71
2023/10/19 07:53:58;;;;;;;5.00;4.70;;;;;;;;;;6241110;23;20027;-71
2023/10/19 07:56:24;;;;;;;5.15;4.75;;;;;;;;;;6215493;23;20019;-71
2023/10/19 07:58:50;;;;;;;4.28;3.88;;;;;;;;;;6241963;23;20019;-75
2023/10/19 08:01:16;;;;;;;5.60;5.20;;;;;;;;;;6240147;23;20076;-73
2023/10/19 08:03:42;;;;;;;5.57;5.15;;;;;;;;;;6240793;23;20023;-75
2023/10/19 08:06:09;;;;;;;4.93;4.53;;;;;;;;;;6212762;23;20449;-72
2023/10/19 08:08:35;;;;;;;4.82;4.53;;;;;;;;;;6240777;23;20399;-72
2023/10/19 08:11:01;;;;;;;4.80;4.50;;;;;;;;;;6238518;23;20046;-74
2023/10/19 08:13:27;;;;;;;4.20;3.90;;;;;;;;;;6211875;23;20042;-73
2023/10/19 08:15:53;;;;;;;4.80;4.50;;;;;;;;;;6239638;23;20383;-73
2023/10/19 08:18:20;;;;;;;4.93;4.53;;;;;;;;;;6188802;23;20070;-73
2023/10/19 08:20:46;;;;;;;4.50;4.10;;;;;;;;;;6239209;23;20538;-74
2023/10/19 08:23:18;;;;;;;4.18;3.92;;;;;;;;;;6214295;23;20016;-73
2023/10/19 08:25:44;;;;;;;4.38;4.00;;;;;;;;;;6193715;23;20337;-73
2023/10/19 08:28:11;;;;;;;4.72;4.43;;;;;;;;;;6217129;23;20103;-73
2023/10/19 08:30:37;;;;;;;5.13;4.60;;;;;;;;;;6217164;23;20360;-73
2023/10/19 08:33:03;;;;;;;4.60;4.30;;;;;;;;;;6243087;23;20361;-74
2023/10/19 08:35:30;;;;;;;3.42;3.22;;;;;;;;;;6216187;23;20023;-74
2023/10/19 08:37:59;;;;;;;4.78;4.38;;;;;;;;;;6216259;23;20016;-73
2023/10/19 08:40:26;;;;;;;4.03;3.65;;;;;;;;;;6191896;23;20468;-73
2023/10/19 08:42:53;;;;;;;4.10;3.80;;;;;;;;;;6243130;23;20019;-73
2023/10/19 08:45:21;;;;;;;2.78;2.63;;;;;;;;;;6243038;23;20036;-73
2023/10/19 08:47:58;;;;;;;4.10;3.80;;;;;;;;;;6211990;23;20099;-73
2023/10/19 08:50:24;;;;;;;3.65;3.40;;;;;;;;;;6242640;23;20347;-72
2023/10/19 08:52:54;;;;;;;4.50;3.35;;;;;;;;;;6215071;23;20095;-72
2023/10/19 08:55:20;;;;;;;4.22;4.03;;;;;;;;;;6191340;23;20020;-72
2023/10/19 08:57:48;;;;;;;4.40;4.10;;;;;;;;;;6243584;23;20062;-72
2023/10/19 09:00:17;;;;;;;6.78;5.95;;;;;;;;;;6215541;23;20016;-71
2023/10/19 09:02:43;;;;;;;5.50;5.07;;;;;;;;;;6216407;23;20035;-71
2023/10/19 09:05:19;;;;;;;4.78;3.80;;;;;;;;;;6215947;23;20087;-72
2023/10/19 09:07:55;;;;;;;5.03;4.63;;;;;;;;;;6216931;23;20423;-71
2023/10/19 09:10:22;;;;;;;6.18;5.57;;;;;;;;;;6244585;23;20018;-72
2023/10/19 09:13:09;;;;;;;4.85;4.45;;;;;;;;;;6218131;23;20539;-71
2023/10/19 09:15:35;;;;;;;4.65;4.25;;;;;;;;;;6244970;23;20091;-71
2023/10/19 09:18:27;;;;;;;3.13;3.00;;;;;;;;;;6245660;23;20012;-72
2023/10/19 09:21:01;;;;;;;2.00;1.90;;;;;;;;;;6237685;23;20012;-70
2023/10/19 09:23:30;;;;;;;2.00;1.90;;;;;;;;;;6245239;23;20012;-70
2023/10/19 09:25:57;;;;;;;2.03;1.92;;;;;;;;;;6244626;23;20475;-70
2023/10/19 09:28:24;;;;;;;2.75;2.65;;;;;;;;;;6218126;23;20028;-71
2023/10/19 09:30:50;;;;;;;2.45;2.33;;;;;;;;;;6192992;23;20063;-71
2023/10/19 09:33:21;;;;;;;4.03;2.90;;;;;;;;;;6244825;23;20024;-72
2023/10/19 09:35:56;;;;;;;3.17;2.97;;;;;;;;;;6244657;23;20008;-71
2023/10/19 09:38:22;;;;;;;3.13;2.92;;;;;;;;;;6245297;23;20016;-72
2023/10/19 09:40:49;;;;;;;2.90;2.80;;;;;;;;;;6245086;23;20012;-71
2023/10/19 09:43:16;;;;;;;3.50;3.20;;;;;;;;;;6245211;23;20456;-71
2023/10/19 09:45:43;;;;;;;3.60;3.30;;;;;;;;;;6217479;23;20452;-72
2023/10/19 09:48:16;;;;;;;15.07;11.68;;;;;;;;;;6244162;23;20515;-71
2023/10/19 09:50:44;;;;;;;5.60;5.10;;;;;;;;;;6220055;23;20590;-72
2023/10/19 09:53:10;;;;;;;5.25;4.85;;;;;;;;;;6217902;23;20036;-71
2023/10/19 09:55:37;;;;;;;4.80;4.47;;;;;;;;;;6244969;23;20022;-71
2023/10/19 09:58:07;;;;;;;4.72;4.32;;;;;;;;;;6193040;23;20008;-72
2023/10/19 10:00:34;;;;;;;4.60;4.20;;;;;;;;;;6245722;23;20012;-71
2023/10/19 10:03:02;;;;;;;4.40;4.10;;;;;;;;;;6245075;23;20097;-71
2023/10/19 10:05:38;;;;;;;3.78;3.30;;;;;;;;;;6245379;23;20014;-71
2023/10/19 10:08:19;;;;;;;3.60;3.40;;;;;;;;;;6244772;23;20012;-70
2023/10/19 10:10:46;;;;;;;3.25;3.05;;;;;;;;;;6218272;23;20329;-71
2023/10/19 10:13:26;;;;;;;3.60;3.40;;;;;;;;;;6244540;23;20016;-74
2023/10/19 10:15:52;;;;;;;3.63;3.40;;;;;;;;;;6244568;23;20016;-74
2023/10/19 10:18:18;;;;;;;4.18;3.90;;;;;;;;;;6244134;23;20440;-70
2023/10/19 10:20:44;;;;;;;6.38;5.78;;;;;;;;;;6217202;23;20038;-71
2023/10/19 10:23:17;;;;;;;3.30;3.10;;;;;;;;;;6244466;23;20039;-71
2023/10/19 10:25:48;;;;;;;3.72;3.42;;;;;;;;;;6245042;23;20035;-71
2023/10/19 10:28:14;;;;;;;3.43;3.13;;;;;;;;;;6218472;23;20031;-71
2023/10/19 10:30:59;;;;;;;3.05;2.90;;;;;;;;;;6244874;23;20322;-69
2023/10/19 10:33:37;;;;;;;3.30;3.10;;;;;;;;;;6243090;23;20085;-70
2023/10/19 10:36:07;;;;;;;3.20;2.90;;;;;;;;;;6242082;23;20012;-70
2023/10/19 10:38:35;;;;;;;3.30;3.10;;;;;;;;;;6242481;23;20425;-71
2023/10/19 10:41:01;;;;;;;2.90;2.70;;;;;;;;;;6214968;23;20359;-70
2023/10/19 10:43:27;;;;;;;3.35;3.00;;;;;;;;;;6190616;23;20368;-70
2023/10/19 10:46:03;;;;;;;3.42;3.13;;;;;;;;;;6190036;23;20012;-71
2023/10/19 10:48:30;;;;;;;2.50;2.40;;;;;;;;;;6242212;23;20086;-71
2023/10/19 10:50:56;;;;;;;2.63;2.53;;;;;;;;;;6215639;23;20085;-73
2023/10/19 10:53:24;;;;;;;2.80;2.70;;;;;;;;;;6244035;23;20468;-71
2023/10/19 10:55:50;;;;;;;2.60;2.50;;;;;;;;;;6242748;23;20012;-71
2023/10/19 10:58:17;;;;;;;3.63;2.33;;;;;;;;;;6241836;23;20050;-70
2023/10/19 11:00:44;;;;;;;3.40;2.70;;;;;;;;;;6242015;23;20008;-70
2023/10/19 11:03:11;;;;;;;3.03;2.83;;;;;;;;;;6215462;23;20094;-70
2023/10/19 11:05:37;;;;;;;2.90;2.80;;;;;;;;;;6241894;23;20024;-71
2023/10/19 11:08:06;;;;;;;3.67;3.00;;;;;;;;;;6242408;23;20008;-71
2023/10/19 11:10:32;;;;;;;2.75;2.65;;;;;;;;;;6241897;23;20349;-71
2023/10/19 11:13:01;;;;;;;3.35;3.15;;;;;;;;;;6241597;23;20027;-70
2023/10/19 11:15:27;;;;;;;3.65;3.35;;;;;;;;;;6241845;23;20012;-70
2023/10/19 11:17:53;;;;;;;3.25;3.03;;;;;;;;;;6214615;23;20018;-71
2023/10/19 11:20:23;;;;;;;2.72;2.63;;;;;;;;;;6242231;23;20023;-71
2023/10/19 11:22:53;;;;;;;2.90;2.63;;;;;;;;;;6241835;23;20044;-71
2023/10/19 11:25:19;;;;;;;2.90;2.70;;;;;;;;;;6214963;23;20016;-71
2023/10/19 11:27:45;;;;;;;2.97;2.70;;;;;;;;;;6241477;23;20035;-71
2023/10/19 11:30:11;;;;;;;2.58;2.47;;;;;;;;;;6241399;23;20012;-71
2023/10/19 11:32:39;;;;;;;2.20;2.10;;;;;;;;;;6241686;23;20012;-71
2023/10/19 11:35:09;;;;;;;2.30;2.20;;;;;;;;;;6242111;23;20012;-70
2023/10/19 11:37:45;;;;;;;2.40;2.30;;;;;;;;;;6190689;23;20016;-70
2023/10/19 11:40:11;;;;;;;2.03;1.92;;;;;;;;;;6242152;23;20070;-71
2023/10/19 11:42:38;;;;;;;3.03;2.65;;;;;;;;;;6243960;23;20026;-71
2023/10/19 11:45:06;;;;;;;2.47;2.38;;;;;;;;;;6216940;23;20337;-72
2023/10/19 11:47:32;;;;;;;2.45;2.25;;;;;;;;;;6243246;23;20365;-72
2023/10/19 11:49:58;;;;;;;2.20;2.10;;;;;;;;;;6243091;23;20038;-70
2023/10/19 11:52:24;;;;;;;3.67;3.10;;;;;;;;;;6243071;23;20011;-70
2023/10/19 11:54:50;;;;;;;2.13;2.03;;;;;;;;;;6242018;23;20480;-71
2023/10/19 11:57:16;;;;;;;2.13;2.03;;;;;;;;;;6241516;23;20023;-71
2023/10/19 11:59:44;;;;;;;3.00;2.80;;;;;;;;;;6190018;23;20589;-71
2023/10/19 12:02:09;;;;;;;3.28;2.67;;;;;;;;;;6241457;23;20008;-71
2023/10/19 12:04:36;;;;;;;4.70;2.45;;;;;;;;;;6242205;23;20019;-70
2023/10/19 12:07:03;;;;;;;2.88;2.53;;;;;;;;;;6241349;23;20070;-71
2023/10/19 12:09:30;;;;;;;2.78;2.58;;;;;;;;;;6243364;23;20019;-71
2023/10/19 12:11:56;;;;;;;2.40;2.30;;;;;;;;;;6243511;23;20016;-71
2023/10/19 12:14:22;;;;;;;2.55;2.35;;;;;;;;;;6243484;23;20070;-71
2023/10/19 12:16:48;;;;;;;2.70;2.60;;;;;;;;;;6243480;23;20012;-71
2023/10/19 12:19:15;;;;;;;2.30;2.10;;;;;;;;;;6243471;23;20016;-71
2023/10/19 12:21:41;;;;;;;2.20;2.10;;;;;;;;;;6216589;23;20475;-70
2023/10/19 12:24:08;;;;;;;2.55;2.40;;;;;;;;;;6243122;23;20090;-70
2023/10/19 12:26:34;;;;;;;2.67;2.58;;;;;;;;;;6243381;23;20008;-70
2023/10/19 12:29:00;;;;;;;2.50;2.40;;;;;;;;;;6242892;23;20460;-70
2023/10/19 12:31:26;;;;;;;2.30;2.10;;;;;;;;;;6243502;23;20067;-71
2023/10/19 12:33:53;;;;;;;2.33;2.10;;;;;;;;;;6243799;23;20027;-71
2023/10/19 12:38:55;;;;;;;2.75;2.63;;;;;;;;;;6243637;23;20368;-71
2023/10/19 12:41:21;;;;;;;3.65;3.42;;;;;;;;;;6216525;23;20012;-72
2023/10/19 12:43:48;;;;;;;2.55;2.42;;;;;;;;;;6217423;23;20472;-71
2023/10/19 12:46:14;;;;;;;3.63;3.17;;;;;;;;;;6244078;23;20104;-71
2023/10/19 12:48:40;;;;;;;7.57;5.15;;;;;;;;;;6244123;23;20095;-70
2023/10/19 12:51:11;;;;;;;5.75;4.78;;;;;;;;;;6243150;23;20404;-71
2023/10/19 12:53:38;;;;;;;14.30;5.95;;;;;;;;;;6243185;23;20030;-72
2023/10/19 12:56:05;;;;;;;9.90;3.60;;;;;;;;;;6242566;23;20008;-71
2023/10/19 12:58:31;;;;;;;3.60;3.40;;;;;;;;;;6243499;23;20057;-71
2023/10/19 13:00:58;;;;;;;3.85;3.50;;;;;;;;;;6242977;23;20014;-69
2023/10/19 13:03:27;;;;;;;6.03;3.63;;;;;;;;;;6216343;23;20066;-70
2023/10/19 13:05:53;;;;;;;3.60;3.30;;;;;;;;;;6243206;23;20082;-71
2023/10/19 13:08:19;;;;;;;5.28;3.65;;;;;;;;;;6242423;23;20015;-70
2023/10/19 13:10:50;;;;;;;4.10;2.88;;;;;;;;;;6216194;23;20019;-70
2023/10/19 13:13:16;;;;;;;3.30;2.97;;;;;;;;;;6215531;23;20103;-70
2023/10/19 13:15:44;;;;;;;2.60;2.40;;;;;;;;;;6242294;23;20051;-70
2023/10/19 13:18:10;;;;;;;4.75;2.58;;;;;;;;;;6215736;23;20012;-70
2023/10/19 13:20:36;;;;;;;3.50;2.65;;;;;;;;;;6215469;23;20019;-70
2023/10/19 13:23:03;;;;;;;2.72;2.60;;;;;;;;;;6215712;23;20496;-70
2023/10/19 13:25:39;;;;;;;2.95;2.75;;;;;;;;;;6216247;23;20012;-71
2023/10/19 13:28:11;;;;;;;3.20;2.40;;;;;;;;;;6241366;23;20051;-70
2023/10/19 13:30:37;;;;;;;8.52;3.13;;;;;;;;;;6240326;23;20015;-70
2023/10/19 13:33:04;;;;;;;8.30;3.13;;;;;;;;;;6240800;23;20016;-70
2023/10/19 13:35:30;;;;;;;11.70;4.07;;;;;;;;;;6190725;23;20091;-71
2023/10/19 13:37:56;;;;;;;4.60;3.72;;;;;;;;;;6240371;23;20360;-71
2023/10/19 13:40:23;;;;;;;9.82;7.78;;;;;;;;;;6241968;23;20472;-70
2023/10/19 13:42:49;;;;;;;5.15;4.75;;;;;;;;;;6242585;23;20087;-71
2023/10/19 13:45:34;;;;;;;4.20;3.72;;;;;;;;;;6242821;23;20023;-70
2023/10/19 13:48:01;;;;;;;5.13;3.70;;;;;;;;;;6215858;23;20437;-71
2023/10/19 13:50:29;;;;;;;3.58;3.38;;;;;;;;;;6190859;23;20073;-70
2023/10/19 13:52:56;;;;;;;5.32;3.63;;;;;;;;;;6215603;23;20024;-71
2023/10/19 13:55:25;;;;;;;3.65;3.35;;;;;;;;;;6242270;23;20082;-70
2023/10/19 13:57:51;;;;;;;4.40;4.00;;;;;;;;;;6215630;23;20440;-70
2023/10/19 14:03:04;;;;;;;3.63;3.28;;;;;;;;;;6215456;23;20023;-70
2023/10/19 14:05:39;;;;;;;3.35;3.03;;;;;;;;;;6242593;23;20057;-70
2023/10/19 14:08:06;;;;;;;4.90;3.50;;;;;;;;;;6215179;23;20428;-70
2023/10/19 14:10:32;;;;;;;3.10;2.90;;;;;;;;;;6215633;23;20018;-71
2023/10/19 14:12:59;;;;;;;3.25;3.05;;;;;;;;;;6242002;23;20016;-71
2023/10/19 14:15:27;;;;;;;3.00;2.80;;;;;;;;;;6215360;23;20094;-70
2023/10/19 14:17:56;;;;;;;3.10;2.78;;;;;;;;;;6242092;23;20087;-71
2023/10/19 14:20:22;;;;;;;2.75;2.55;;;;;;;;;;6214384;23;20062;-70
2023/10/19 14:22:53;;;;;;;2.47;2.28;;;;;;;;;;6242254;23;20008;-70
2023/10/19 14:25:20;;;;;;;2.35;2.25;;;;;;;;;;6242491;23;20432;-70
2023/10/19 14:27:47;;;;;;;2.25;2.15;;;;;;;;;;6241939;23;20016;-70
2023/10/19 14:30:14;;;;;;;3.78;2.53;;;;;;;;;;6190879;23;20020;-70
2023/10/19 14:32:41;;;;;;;3.67;3.42;;;;;;;;;;6242081;23;20008;-70
2023/10/19 14:35:10;;;;;;;5.63;3.92;;;;;;;;;;6215863;23;20035;-70
2023/10/19 14:37:39;;;;;;;4.30;4.00;;;;;;;;;;6242230;23;20012;-70
2023/10/19 14:40:14;;;;;;;6.15;5.65;;;;;;;;;;6242038;23;20066;-70
2023/10/19 14:42:41;;;;;;;4.88;4.47;;;;;;;;;;6215325;23;20019;-71
2023/10/19 14:45:13;;;;;;;5.10;4.63;;;;;;;;;;6215146;23;20493;-69
2023/10/19 14:47:43;;;;;;;4.95;4.43;;;;;;;;;;6242050;23;20066;-70
2023/10/19 14:50:11;;;;;;;4.60;4.30;;;;;;;;;;6241842;23;20023;-69
2023/10/19 14:52:43;;;;;;;4.20;3.90;;;;;;;;;;6241658;23;20015;-69
2023/10/19 14:55:12;;;;;;;5.05;4.55;;;;;;;;;;6214726;23;20427;-69
2023/10/19 14:57:40;;;;;;;4.25;3.95;;;;;;;;;;6241736;23;20015;-69
2023/10/19 15:00:14;;;;;;;5.07;4.68;;;;;;;;;;6214841;23;20016;-69
2023/10/19 15:02:46;;;;;;;4.82;4.47;;;;;;;;;;6241737;23;20008;-69
2023/10/19 15:05:18;;;;;;;4.55;4.25;;;;;;;;;;6214547;23;20015;-68
2023/10/19 15:07:44;;;;;;;4.03;3.72;;;;;;;;;;6215003;23;20085;-69
2023/10/19 15:10:11;;;;;;;3.85;3.55;;;;;;;;;;6241610;23;20074;-69
2023/10/19 15:12:40;;;;;;;4.03;3.72;;;;;;;;;;6241702;23;20016;-69